createdAt,value
2023-11-14T00:00:08.217Z,98580.64
2023-11-14T00:01:07.503Z,98577.19
2023-11-14T00:02:07.920Z,98580.58
2023-11-14T00:03:08.364Z,98578.9
2023-11-14T00:04:08.614Z,98580.64
2023-11-14T00:05:09.399Z,98576.97
2023-11-14T00:06:09.487Z,98574.81
2023-11-14T00:07:09.608Z,98576.8
2023-11-14T00:08:09.895Z,98578
2023-11-14T00:09:10.320Z,98577.95
2023-11-14T00:10:11.164Z,98577.19
2023-11-14T00:11:12.055Z,98573.23
2023-11-14T00:12:11.892Z,98574.67
2023-11-14T00:13:11.907Z,98576.4
2023-11-14T00:14:12.347Z,98578.01
2023-11-14T00:15:12.449Z,98567.53
2023-11-14T00:16:12.954Z,98574.69
2023-11-14T00:17:13.749Z,98571.16
2023-11-14T00:18:13.520Z,98570.85
2023-11-14T00:19:14.801Z,98572.85
2023-11-14T00:20:14.479Z,98571.05
2023-11-14T00:21:14.450Z,98573.66
2023-11-14T00:22:14.929Z,98576.31
2023-11-14T00:23:15.336Z,98573.41
2023-11-14T00:24:15.747Z,98577.2
2023-11-14T00:25:16.066Z,98573.02
2023-11-14T00:26:16.370Z,98575.14
2023-11-14T00:27:16.589Z,98575.39
2023-11-14T00:28:17.000Z,98575.15
2023-11-14T00:29:17.412Z,98569.61
2023-11-14T00:30:17.940Z,98574
2023-11-14T00:31:17.988Z,98575.88
2023-11-14T00:32:18.537Z,98577.23
2023-11-14T00:33:18.668Z,98578.56
2023-11-14T00:34:19.196Z,98578.18
2023-11-14T00:35:19.388Z,98583.95
2023-11-14T00:36:19.825Z,98581.33
2023-11-14T00:37:20.353Z,98582.8
2023-11-14T00:38:20.672Z,98580.94
2023-11-14T00:39:20.921Z,98582.27
2023-11-14T00:40:21.288Z,98578.32
2023-11-14T00:41:21.536Z,98579.16
2023-11-14T00:42:22.007Z,98581
2023-11-14T00:43:22.314Z,98578.18
2023-11-14T00:44:22.897Z,98579.45
2023-11-14T00:45:22.970Z,98577.67
2023-11-14T00:46:23.530Z,98577.15
2023-11-14T00:47:23.743Z,98579.83
2023-11-14T00:48:24.150Z,98578.7
2023-11-14T00:49:24.537Z,98579.09
2023-11-14T00:50:24.829Z,98576.04
2023-11-14T00:51:24.996Z,98578.69
2023-11-14T00:52:25.717Z,98580.19
2023-11-14T00:53:25.763Z,98575.2
2023-11-14T00:54:26.172Z,98578.05
2023-11-14T00:55:26.549Z,98573.67
2023-11-14T00:56:26.860Z,98572.36
2023-11-14T00:57:27.334Z,98575.36
2023-11-14T00:58:27.798Z,98576.33
2023-11-14T00:59:28.057Z,98575.6
2023-11-14T01:00:28.291Z,98574.12
2023-11-14T01:01:28.763Z,98576.12
2023-11-14T01:02:28.976Z,98578.95
2023-11-14T01:03:29.388Z,98577.2
2023-11-14T01:04:29.658Z,98576.11
2023-11-14T01:05:30.152Z,98574.69
2023-11-14T01:06:30.363Z,98568.48
2023-11-14T01:07:30.826Z,98572.8
2023-11-14T01:08:31.294Z,98566.41
2023-11-14T01:09:31.501Z,98568.16
2023-11-14T01:10:32.021Z,98564.45
2023-11-14T01:11:32.225Z,98565.59
2023-11-14T01:12:33.165Z,98563.16
2023-11-14T01:13:33.012Z,98559.85
2023-11-14T01:14:33.498Z,98559.77
2023-11-14T01:15:33.424Z,98562.55
2023-11-14T01:16:34.156Z,98557.9
2023-11-14T01:17:34.396Z,98556.97
2023-11-14T01:18:34.621Z,98557.8
2023-11-14T01:19:42.159Z,98555.22
2023-11-14T01:20:39.887Z,98555.91
2023-11-14T01:21:40.012Z,98556.74
2023-11-14T01:22:40.531Z,98560.59
2023-11-14T01:23:40.858Z,98557.92
2023-11-14T01:24:41.229Z,98563.58
2023-11-14T01:25:41.681Z,98564.41
2023-11-14T01:26:41.702Z,98564.27
2023-11-14T01:27:42.125Z,98566.87
2023-11-14T01:28:42.634Z,98567.21
2023-11-14T01:29:46.591Z,98569.64
2023-11-14T01:30:44.389Z,98568.65
2023-11-14T01:31:44.403Z,98568.65
2023-11-14T01:32:44.866Z,98569.66
2023-11-14T01:33:45.215Z,98569.19
2023-11-14T01:34:45.411Z,98567.16
2023-11-14T01:35:45.725Z,98570.28
2023-11-14T01:36:46.227Z,98565.48
2023-11-14T01:37:46.530Z,98569.95
2023-11-14T01:38:46.950Z,98566.95
2023-11-14T01:39:47.185Z,98566.13
2023-11-14T01:40:53.672Z,98567.36
2023-11-14T01:41:52.411Z,98567.09
2023-11-14T01:42:51.588Z,98568.73
2023-11-14T01:43:51.872Z,98570.06
2023-11-14T01:44:52.634Z,98566.27
2023-11-14T01:45:52.623Z,98564.76
2023-11-14T01:46:54.318Z,98565.34
2023-11-14T01:47:53.434Z,98567.52
2023-11-14T01:48:54.013Z,98567.54
2023-11-14T01:49:54.746Z,98562.98
2023-11-14T01:50:54.352Z,98567.8
2023-11-14T01:51:54.660Z,98568.7
2023-11-14T01:52:55.421Z,98571.45
2023-11-14T01:53:55.649Z,98565.88
2023-11-14T01:54:56.679Z,98568.7
2023-11-14T01:55:56.175Z,98569.78
2023-11-14T01:56:56.906Z,98569.95
2023-11-14T01:57:56.975Z,98566.98
2023-11-14T01:58:58.333Z,98565.81
2023-11-14T01:59:57.847Z,98569.4
2023-11-14T02:00:58.485Z,98566.37
2023-11-14T02:01:58.965Z,98571.63
2023-11-14T02:02:59.360Z,98567.47
2023-11-14T02:03:59.602Z,98568.36
2023-11-14T02:05:00.613Z,98569.97
2023-11-14T02:05:59.969Z,98571.3
2023-11-14T02:07:00.301Z,98572.08
2023-11-14T02:08:00.680Z,98573.7
2023-11-14T02:09:01.900Z,98571.37
2023-11-14T02:10:01.079Z,98570.69
2023-11-14T02:11:01.549Z,98569.28
2023-11-14T02:12:02.036Z,98572.66
2023-11-14T02:13:02.698Z,98574.39
2023-11-14T02:14:02.863Z,98571.64
2023-11-14T02:15:03.209Z,98574.4
2023-11-14T02:16:03.726Z,98571.3
2023-11-14T02:17:04.783Z,98573.45
2023-11-14T02:18:04.526Z,98571.38
2023-11-14T02:19:04.225Z,98578.94
2023-11-14T02:20:05.614Z,98575.78
2023-11-14T02:21:05.678Z,98577.2
2023-11-14T02:22:05.385Z,98577.69
2023-11-14T02:23:11.490Z,98575.23
2023-11-14T02:24:14.121Z,98578.07
2023-11-14T02:25:12.585Z,98581.23
2023-11-14T02:26:12.244Z,98584.89
2023-11-14T02:27:12.659Z,98584.05
2023-11-14T02:28:12.678Z,98581.88
2023-11-14T02:29:21.795Z,98584.23
2023-11-14T02:30:14.836Z,98583.78
2023-11-14T02:31:14.916Z,98583.68
2023-11-14T02:32:14.916Z,98583.73
2023-11-14T02:33:15.366Z,98578.73
2023-11-14T02:34:15.682Z,98583.2
2023-11-14T02:35:16.307Z,98586.45
2023-11-14T02:36:16.416Z,98587.88
2023-11-14T02:37:16.823Z,98589.03
2023-11-14T02:38:16.931Z,98591.66
2023-11-14T02:39:17.366Z,98593.25
2023-11-14T02:40:17.800Z,98592.68
2023-11-14T02:41:18.119Z,98592.7
2023-11-14T02:42:18.489Z,98593.83
2023-11-14T02:43:18.710Z,98594.62
2023-11-14T02:44:19.236Z,98598.62
2023-11-14T02:45:19.688Z,98594.91
2023-11-14T02:46:19.888Z,98599.34
2023-11-14T02:47:20.401Z,98599.85
2023-11-14T02:48:20.628Z,98598.39
2023-11-14T02:51:24.460Z,98597.91
2023-11-14T02:52:25.122Z,98601.03
2023-11-14T02:53:25.402Z,98601.33
2023-11-14T02:54:25.639Z,98602.11
2023-11-14T02:55:26.362Z,98602.26
2023-11-14T02:56:26.281Z,98604.05
2023-11-14T02:57:26.797Z,98602.95
2023-11-14T02:58:27.014Z,98606.83
2023-11-14T02:59:27.432Z,98603.27
2023-11-14T03:00:27.841Z,98602.1
2023-11-14T03:01:28.504Z,98601.56
2023-11-14T03:02:28.522Z,98601.59
2023-11-14T03:03:28.882Z,98602.25
2023-11-14T03:04:29.031Z,98601.06
2023-11-14T03:05:29.617Z,98601.16
2023-11-14T03:06:29.780Z,98607.66
2023-11-14T03:07:30.273Z,98604.57
2023-11-14T03:08:30.571Z,98603.41
2023-11-14T03:09:31.247Z,98596.5
2023-11-14T03:10:31.658Z,98600.99
2023-11-14T03:11:31.702Z,98597.06
2023-11-14T03:12:32.121Z,98596.28
2023-11-14T03:13:32.876Z,98593.03
2023-11-14T03:14:32.656Z,98597.25
2023-11-14T03:15:33.167Z,98593.78
2023-11-14T03:16:33.458Z,98592.87
2023-11-14T03:17:34.186Z,98595.89
2023-11-14T03:18:34.111Z,98595.19
2023-11-14T03:20:36.364Z,98597.23
2023-11-14T03:22:38.861Z,98592.68
2023-11-14T03:23:39.053Z,98592.87
2023-11-14T03:24:39.870Z,98593.62
2023-11-14T03:25:39.893Z,98590.33
2023-11-14T03:26:40.298Z,98589.22
2023-11-14T03:27:41.018Z,98589.52
2023-11-14T03:28:40.960Z,98589.04
2023-11-14T03:29:41.187Z,98587.62
2023-11-14T03:30:41.668Z,98585.55
2023-11-14T03:31:42.142Z,98581.69
2023-11-14T03:32:42.512Z,98580.17
2023-11-14T03:33:42.609Z,98578.55
2023-11-14T03:34:42.990Z,98573.7
2023-11-14T03:35:43.269Z,98572.11
2023-11-14T03:36:43.730Z,98574.66
2023-11-14T03:37:44.182Z,98571.99
2023-11-14T03:38:44.369Z,98571.41
2023-11-14T03:39:44.761Z,98566.47
2023-11-14T03:40:45.336Z,98567.5
2023-11-14T03:41:45.514Z,98566.97
2023-11-14T03:42:45.938Z,98566.48
2023-11-14T03:43:46.309Z,98569.06
2023-11-14T03:44:46.556Z,98573.04
2023-11-14T03:45:46.788Z,98571.47
2023-11-14T03:46:47.334Z,98571.97
2023-11-14T03:47:47.849Z,98573.06
2023-11-14T03:48:47.917Z,98573.09
2023-11-14T03:49:48.282Z,98574.16
2023-11-14T03:50:48.953Z,98574.58
2023-11-14T03:51:48.960Z,98569.94
2023-11-14T03:52:49.474Z,98573.56
2023-11-14T03:53:49.801Z,98571.39
2023-11-14T03:54:50.226Z,98571.03
2023-11-14T03:55:50.680Z,98571.17
2023-11-14T03:56:50.733Z,98574.5
2023-11-14T03:57:51.168Z,98576.31
2023-11-14T03:58:51.490Z,98574.09
2023-11-14T03:59:51.881Z,98576.06
2023-11-14T04:00:52.396Z,98577.14
2023-11-14T04:01:52.722Z,98577.41
2023-11-14T04:02:52.948Z,98573.48
2023-11-14T04:03:53.187Z,98565.75
2023-11-14T04:04:53.615Z,98568.14
2023-11-14T04:05:54.075Z,98572.83
2023-11-14T04:06:54.364Z,98570.42
2023-11-14T04:07:54.727Z,98571.96
2023-11-14T04:08:55.032Z,98569.05
2023-11-14T04:09:55.437Z,98566.55
2023-11-14T04:10:55.984Z,98570.23
2023-11-14T04:11:56.426Z,98565.01
2023-11-14T04:12:56.581Z,98569.42
2023-11-14T04:13:57.237Z,98569.24
2023-11-14T04:14:57.328Z,98570
2023-11-14T04:15:57.433Z,98568
2023-11-14T04:16:58.127Z,98563.16
2023-11-14T04:17:58.636Z,98566.52
2023-11-14T04:18:58.767Z,98567.59
2023-11-14T04:19:59.212Z,98566.78
2023-11-14T04:20:59.317Z,98569.55
2023-11-14T04:21:59.731Z,98567.17
2023-11-14T04:23:00.167Z,98567.39
2023-11-14T04:24:00.476Z,98559.08
2023-11-14T04:25:00.673Z,98563.61
2023-11-14T04:26:01.119Z,98561.32
2023-11-14T04:27:01.510Z,98563.12
2023-11-14T04:28:01.791Z,98559.42
2023-11-14T04:29:02.302Z,98564.52
2023-11-14T04:30:02.627Z,98563.95
2023-11-14T04:31:03.255Z,98557.72
2023-11-14T04:32:03.763Z,98558.88
2023-11-14T04:33:03.992Z,98558.42
2023-11-14T04:34:03.797Z,98559.49
2023-11-14T04:35:04.958Z,98557.08
2023-11-14T04:36:07.276Z,98554.66
2023-11-14T04:37:05.053Z,98549.83
2023-11-14T04:38:05.478Z,98552.38
2023-11-14T04:39:05.885Z,98545.88
2023-11-14T04:40:07.229Z,98546.25
2023-11-14T04:41:06.750Z,98549.53
2023-11-14T04:42:06.807Z,98552.78
2023-11-14T04:43:07.230Z,98553.48
2023-11-14T04:44:07.606Z,98549.98
2023-11-14T04:45:08.420Z,98553.8
2023-11-14T04:46:08.200Z,98554.31
2023-11-14T04:47:08.698Z,98558.43
2023-11-14T04:48:08.844Z,98555.64
2023-11-14T04:49:09.308Z,98557.12
2023-11-14T04:50:12.312Z,98559
2023-11-14T04:51:10.246Z,98557.52
2023-11-14T04:52:10.369Z,98560.89
2023-11-14T04:53:10.763Z,98564.72
2023-11-14T04:54:11.082Z,98564.6
2023-11-14T04:55:11.347Z,98564.52
2023-11-14T04:57:14.583Z,98564.9
2023-11-14T04:58:15.010Z,98563.08
2023-11-14T04:59:15.556Z,98561.64
2023-11-14T05:00:16.358Z,98562.03
2023-11-14T05:01:17.488Z,98565.51
2023-11-14T05:02:16.982Z,98562.06
2023-11-14T05:03:16.901Z,98565.55
2023-11-14T05:04:17.115Z,98567.36
2023-11-14T05:05:18.232Z,98564.8
2023-11-14T05:06:17.933Z,98568.56
2023-11-14T05:07:18.247Z,98565.95
2023-11-14T05:08:18.530Z,98568.38
2023-11-14T05:09:18.869Z,98562.61
2023-11-14T05:10:19.188Z,98563.55
2023-11-14T05:11:19.795Z,98562.92
2023-11-14T05:12:20.030Z,98568.3
2023-11-14T05:13:20.431Z,98563.14
2023-11-14T05:14:21.167Z,98564.39
2023-11-14T05:15:21.048Z,98569.05
2023-11-14T05:16:24.276Z,98569.45
2023-11-14T05:17:22.570Z,98576.39
2023-11-14T05:18:23.246Z,98574.83
2023-11-14T05:19:23.902Z,98574.97
2023-11-14T05:20:23.958Z,98575.45
2023-11-14T05:21:23.706Z,98574.25
2023-11-14T05:22:24.191Z,98576.89
2023-11-14T05:23:24.467Z,98577.25
2023-11-14T05:24:24.792Z,98569.33
2023-11-14T05:25:25.118Z,98568.84
2023-11-14T05:26:25.560Z,98571.34
2023-11-14T05:27:25.775Z,98569.08
2023-11-14T05:28:26.468Z,98572.98
2023-11-14T05:29:26.598Z,98570.74
2023-11-14T05:30:26.889Z,98570.05
2023-11-14T05:31:27.464Z,98571.62
2023-11-14T05:32:27.554Z,98575.39
2023-11-14T05:33:28.088Z,98578.84
2023-11-14T05:34:28.370Z,98581.38
2023-11-14T05:35:29.287Z,98585.06
2023-11-14T05:36:29.127Z,98581.05
2023-11-14T05:37:29.473Z,98582.83
2023-11-14T05:38:31.459Z,98586.51
2023-11-14T05:39:30.029Z,98585.16
2023-11-14T05:40:30.522Z,98589.58
2023-11-14T05:41:30.684Z,98591.67
2023-11-14T05:42:31.176Z,98590.67
2023-11-14T05:43:31.586Z,98596.03
2023-11-14T05:44:31.894Z,98595.16
2023-11-14T05:45:32.428Z,98592.3
2023-11-14T05:46:32.791Z,98597.19
2023-11-14T05:47:32.972Z,98596.45
2023-11-14T05:48:33.286Z,98599.77
2023-11-14T05:49:33.611Z,98598.19
2023-11-14T05:50:34.019Z,98598.19
2023-11-14T05:51:34.710Z,98595.71
2023-11-14T05:52:34.775Z,98597.3
2023-11-14T05:53:35.087Z,98593.84
2023-11-14T05:54:37.545Z,98593.67
2023-11-14T05:55:35.719Z,98599.71
2023-11-14T05:56:36.045Z,98597.23
2023-11-14T05:57:36.490Z,98596.27
2023-11-14T05:58:36.848Z,98598.62
2023-11-14T05:59:38.097Z,98597.55
2023-11-14T06:00:37.532Z,98600.07
2023-11-14T06:01:38.202Z,98599.98
2023-11-14T06:02:38.286Z,98599.47
2023-11-14T06:03:38.669Z,98599.56
2023-11-14T06:04:39.109Z,98600.99
2023-11-14T06:05:39.209Z,98601.59
2023-11-14T06:06:39.629Z,98605.53
2023-11-14T06:07:40.147Z,98606.72
2023-11-14T06:08:40.409Z,98606.38
2023-11-14T06:09:40.756Z,98606.89
2023-11-14T06:10:41.077Z,98608.89
2023-11-14T06:11:41.563Z,98602.34
2023-11-14T06:12:41.621Z,98604.19
2023-11-14T06:13:42.245Z,98602.81
2023-11-14T06:14:43.159Z,98600.59
2023-11-14T06:15:42.950Z,98601.45
2023-11-14T06:16:43.366Z,98597.4
2023-11-14T06:17:43.538Z,98598.29
2023-11-14T06:18:44.110Z,98594.55
2023-11-14T06:19:44.369Z,98594.3
2023-11-14T06:20:44.750Z,98594.52
2023-11-14T06:21:45.071Z,98590.23
2023-11-14T06:22:45.270Z,98594.98
2023-11-14T06:23:45.686Z,98595.23
2023-11-14T06:24:46.220Z,98594.91
2023-11-14T06:25:46.356Z,98596.66
2023-11-14T06:26:46.726Z,98594.28
2023-11-14T06:27:47.033Z,98595.52
2023-11-14T06:28:47.489Z,98593.56
2023-11-14T06:29:47.872Z,98597.37
2023-11-14T06:30:48.403Z,98594.71
2023-11-14T06:31:51.349Z,98592.61
2023-11-14T06:32:49.060Z,98591.19
2023-11-14T06:33:49.479Z,98594.44
2023-11-14T06:34:49.778Z,98592.42
2023-11-14T06:35:50.075Z,98593.45
2023-11-14T06:36:50.477Z,98593.12
2023-11-14T06:37:51.099Z,98589.86
2023-11-14T06:38:51.210Z,98589.55
2023-11-14T06:39:51.722Z,98588.97
2023-11-14T06:40:52.276Z,98595.33
2023-11-14T06:41:52.351Z,98591.3
2023-11-14T06:42:52.777Z,98593.35
2023-11-14T06:43:53.161Z,98587.06
2023-11-14T06:44:53.241Z,98593.42
2023-11-14T06:45:54.366Z,98588.98
2023-11-14T06:46:54.057Z,98583.86
2023-11-14T06:47:54.647Z,98589.42
2023-11-14T06:48:55.586Z,98588.8
2023-11-14T06:49:55.572Z,98587.77
2023-11-14T06:50:57.789Z,98590.77
2023-11-14T06:51:57.263Z,98589.33
2023-11-14T06:52:57.307Z,98591.34
2023-11-14T06:54:01.950Z,98592.92
2023-11-14T06:55:06.088Z,98591.31
2023-11-14T06:56:06.578Z,98597.22
2023-11-14T06:57:07.210Z,98600.45
2023-11-14T06:58:07.088Z,98599.02
2023-11-14T06:59:07.117Z,98601.62
2023-11-14T07:00:08.662Z,98599.75
2023-11-14T07:01:07.842Z,98601.27
2023-11-14T07:02:08.131Z,98600.64
2023-11-14T07:03:08.591Z,98599.48
2023-11-14T07:04:09.432Z,98604.27
2023-11-14T07:05:10.059Z,98599.17
2023-11-14T07:06:10.031Z,98605.52
2023-11-14T07:07:09.933Z,98607.31
2023-11-14T07:08:10.350Z,98607.48
2023-11-14T07:09:10.686Z,98608.34
2023-11-14T07:10:11.757Z,98606.55
2023-11-14T07:11:11.416Z,98603.45
2023-11-14T07:12:11.563Z,98606.33
2023-11-14T07:13:12.313Z,98606.94
2023-11-14T07:14:12.457Z,98611.52
2023-11-14T07:15:13.565Z,98608.16
2023-11-14T07:16:13.346Z,98610.23
2023-11-14T07:17:13.833Z,98610.39
2023-11-14T07:18:13.974Z,98608.09
2023-11-14T07:19:14.925Z,98607.7
2023-11-14T07:20:15.017Z,98608.94
2023-11-14T07:21:14.824Z,98609.55
2023-11-14T07:22:15.667Z,98611.97
2023-11-14T07:23:16.201Z,98611.91
2023-11-14T07:24:16.326Z,98613.34
2023-11-14T07:25:16.442Z,98612.92
2023-11-14T07:26:18.810Z,98616.34
2023-11-14T07:27:17.427Z,98617.43
2023-11-14T07:28:17.612Z,98617.2
2023-11-14T07:29:18.284Z,98617.88
2023-11-14T07:30:18.801Z,98619.69
2023-11-14T07:31:18.905Z,98619.69
2023-11-14T07:32:19.501Z,98620.59
2023-11-14T07:33:19.635Z,98620.05
2023-11-14T07:34:19.956Z,98621.77
2023-11-14T07:35:20.431Z,98621.28
2023-11-14T07:36:20.565Z,98627.17
2023-11-14T07:37:20.899Z,98623.24
2023-11-14T07:38:21.533Z,98626.09
2023-11-14T07:39:21.802Z,98619.77
2023-11-14T07:40:22.077Z,98624.7
2023-11-14T07:41:22.332Z,98626.12
2023-11-14T07:42:22.842Z,98625.69
2023-11-14T07:43:23.080Z,98625.17
2023-11-14T07:44:23.497Z,98626.47
2023-11-14T07:45:24.096Z,98630.45
2023-11-14T07:46:24.077Z,98630.3
2023-11-14T07:47:24.995Z,98632.73
2023-11-14T07:48:25.107Z,98634.86
2023-11-14T07:49:25.267Z,98630.91
2023-11-14T07:50:25.980Z,98631.32
2023-11-14T07:51:25.988Z,98630.25
2023-11-14T07:52:28.299Z,98632.96
2023-11-14T07:53:27.125Z,98629
2023-11-14T07:54:27.127Z,98628.48
2023-11-14T07:55:27.491Z,98630.3
2023-11-14T07:56:27.773Z,98630.92
2023-11-14T07:57:28.195Z,98631.52
2023-11-14T07:58:28.509Z,98628.99
2023-11-14T07:59:29.545Z,98629.72
2023-11-14T08:00:29.157Z,98632.17
2023-11-14T08:01:29.849Z,98630.63
2023-11-14T08:02:29.987Z,98630.81
2023-11-14T08:03:30.539Z,98629.64
2023-11-14T08:04:30.957Z,98629.03
2023-11-14T08:05:31.204Z,98628.64
2023-11-14T08:06:31.299Z,98628.81
2023-11-14T08:07:31.736Z,98629.09
2023-11-14T08:08:32.221Z,98632.38
2023-11-14T08:09:32.451Z,98630.66
2023-11-14T08:10:32.672Z,98630.82
2023-11-14T08:11:33.183Z,98634.7
2023-11-14T08:12:33.492Z,98635.02
2023-11-14T08:13:33.937Z,98634.98
2023-11-14T08:14:34.264Z,98639.27
2023-11-14T08:15:35.416Z,98640.59
2023-11-14T08:16:34.983Z,98642.91
2023-11-14T08:17:35.406Z,98640.26
2023-11-14T08:18:35.596Z,98638.86
2023-11-14T08:19:37.524Z,98636.2
2023-11-14T08:20:36.421Z,98637.64
2023-11-14T08:21:36.754Z,98639.34
2023-11-14T08:22:37.247Z,98636.14
2023-11-14T08:23:37.434Z,98641.8
2023-11-14T08:24:37.986Z,98640.13
2023-11-14T08:25:38.413Z,98639.62
2023-11-14T08:26:38.634Z,98643.38
2023-11-14T08:27:40.757Z,98644.38
2023-11-14T08:28:39.458Z,98643.73
2023-11-14T08:29:39.824Z,98645.92
2023-11-14T08:30:40.085Z,98645.37
2023-11-14T08:31:40.431Z,98643.78
2023-11-14T08:32:41.248Z,98646.49
2023-11-14T08:33:40.951Z,98644.98
2023-11-14T08:34:41.553Z,98640.59
2023-11-14T08:35:41.851Z,98640.39
2023-11-14T08:36:42.210Z,98641.55
2023-11-14T08:37:42.747Z,98642.73
2023-11-14T08:38:42.935Z,98644.81
2023-11-14T08:39:43.406Z,98645.64
2023-11-14T08:40:43.483Z,98647
2023-11-14T08:41:44.105Z,98649.64
2023-11-14T08:42:44.234Z,98651.66
2023-11-14T08:43:44.698Z,98650
2023-11-14T08:44:45.202Z,98652.29
2023-11-14T08:45:45.300Z,98651.33
2023-11-14T08:46:45.842Z,98651.5
2023-11-14T08:47:46.485Z,98652.7
2023-11-14T08:48:46.459Z,98648.44
2023-11-14T08:49:47.514Z,98647.84
2023-11-14T08:50:47.476Z,98650.81
2023-11-14T08:51:47.593Z,98646.23
2023-11-14T08:52:48.288Z,98644.83
2023-11-14T08:53:48.840Z,98643.17
2023-11-14T08:54:48.853Z,98640.4
2023-11-14T08:55:49.290Z,98638.77
2023-11-14T08:56:49.450Z,98644.11
2023-11-14T08:57:49.978Z,98638.98
2023-11-14T08:58:50.103Z,98637.03
2023-11-14T08:59:50.630Z,98639.77
2023-11-14T09:00:51.019Z,98643.05
2023-11-14T09:01:51.371Z,98639.41
2023-11-14T09:02:51.699Z,98636.09
2023-11-14T09:03:52.240Z,98634.88
2023-11-14T09:04:52.266Z,98636.65
2023-11-14T09:05:52.547Z,98632.52
2023-11-14T09:06:53.112Z,98640.18
2023-11-14T09:07:53.445Z,98640.28
2023-11-14T09:08:53.632Z,98642.69
2023-11-14T09:09:54.298Z,98641.36
2023-11-14T09:10:54.530Z,98639.81
2023-11-14T09:11:54.850Z,98637.31
2023-11-14T09:12:55.320Z,98635.76
2023-11-14T09:13:55.646Z,98640.55
2023-11-14T09:14:55.923Z,98639.42
2023-11-14T09:15:56.549Z,98637.23
2023-11-14T09:16:56.676Z,98638.34
2023-11-14T09:17:58.531Z,98640.05
2023-11-14T09:18:57.401Z,98640.89
2023-11-14T09:19:58.007Z,98639.78
2023-11-14T09:20:57.945Z,98637.62
2023-11-14T09:21:58.847Z,98637.28
2023-11-14T09:23:01.118Z,98637.05
2023-11-14T09:24:00.088Z,98630.8
2023-11-14T09:24:59.977Z,98633.47
2023-11-14T09:26:00.351Z,98633.04
2023-11-14T09:27:00.516Z,98633.06
2023-11-14T09:28:02.270Z,98631
2023-11-14T09:29:01.277Z,98633.61
2023-11-14T09:30:01.976Z,98635.41
2023-11-14T09:31:02.212Z,98635.75
2023-11-14T09:32:02.525Z,98635.4
2023-11-14T09:33:02.721Z,98638.65
2023-11-14T09:34:03.221Z,98641.38
2023-11-14T09:35:04.187Z,98636.89
2023-11-14T09:36:04.410Z,98637.52
2023-11-14T09:37:04.373Z,98642.34
2023-11-14T09:38:06.506Z,98642.62
2023-11-14T09:39:06.921Z,98642.75
2023-11-14T09:40:08.105Z,98640.73
2023-11-14T09:41:08.475Z,98641.41
2023-11-14T09:42:07.619Z,98639.98
2023-11-14T09:43:08.091Z,98643.45
2023-11-14T09:44:09.864Z,98643.45
2023-11-14T09:45:09.753Z,98638.73
2023-11-14T09:46:09.062Z,98641.28
2023-11-14T09:47:10.619Z,98644.64
2023-11-14T09:48:09.917Z,98646.47
2023-11-14T09:49:09.879Z,98648.44
2023-11-14T09:50:10.985Z,98648.33
2023-11-14T09:51:11.332Z,98647.38
2023-11-14T09:52:14.180Z,98645.11
2023-11-14T09:53:13.548Z,98648.89
2023-11-14T09:54:14.109Z,98649.7
2023-11-14T09:55:12.845Z,98651.05
2023-11-14T09:56:12.692Z,98647.23
2023-11-14T09:57:13.968Z,98646.28
2023-11-14T09:58:13.536Z,98643.99
2023-11-14T09:59:14.560Z,98647.41
2023-11-14T10:00:15.689Z,98646.27
2023-11-14T10:01:14.704Z,98647.3
2023-11-14T10:02:15.666Z,98652.55
2023-11-14T10:03:15.554Z,98652.92
2023-11-14T10:04:15.909Z,98649
2023-11-14T10:05:17.345Z,98649.12
2023-11-14T10:06:16.458Z,98650.81
2023-11-14T10:07:17.235Z,98652.83
2023-11-14T10:08:17.216Z,98648.36
2023-11-14T10:09:18.609Z,98648.89
2023-11-14T10:10:21.494Z,98647.04
2023-11-14T10:11:19.111Z,98653.78
2023-11-14T10:13:20.819Z,98652.27
2023-11-14T10:14:22.375Z,98654.66
2023-11-14T10:16:25.517Z,98650.97
2023-11-14T10:17:25.786Z,98650.5
2023-11-14T10:18:32.400Z,98646.24
2023-11-14T10:19:30.065Z,98646.86
2023-11-14T10:21:34.251Z,98648.08
2023-11-14T10:22:32.921Z,98647.8
2023-11-14T10:23:40.283Z,98643.35
2023-11-14T10:24:33.866Z,98644.64
2023-11-14T10:25:34.724Z,98644.66
2023-11-14T10:26:34.307Z,98642.44
2023-11-14T10:27:34.712Z,98645.56
2023-11-14T10:28:34.828Z,98642.07
2023-11-14T10:29:35.593Z,98641.5
2023-11-14T10:31:41.599Z,98647.84
2023-11-14T10:32:40.950Z,98644.58
2023-11-14T10:33:41.274Z,98648.58
2023-11-14T10:34:41.533Z,98647.79
2023-11-14T10:35:42.697Z,98650.46
2023-11-14T10:36:49.081Z,98646.31
2023-11-14T10:37:46.851Z,98649.5
2023-11-14T10:39:54.033Z,98650.91
2023-11-14T10:40:53.511Z,98649.17
2023-11-14T10:41:53.031Z,98649.8
2023-11-14T10:42:53.448Z,98647.99
2023-11-14T10:43:52.886Z,98648.06
2023-11-14T10:44:59.528Z,98648.58
2023-11-14T10:45:59.728Z,98653.67
2023-11-14T10:46:58.050Z,98654.53
2023-11-14T10:47:58.314Z,98654.97
2023-11-14T10:49:05.370Z,98651.2
2023-11-14T10:50:02.735Z,98652.22
2023-11-14T10:51:07.729Z,98653.3
2023-11-14T10:52:06.254Z,98652.85
2023-11-14T10:53:06.083Z,98650.45
2023-11-14T10:54:06.672Z,98647.16
2023-11-14T10:55:07.650Z,98650.38
2023-11-14T10:56:07.872Z,98648.58
2023-11-14T10:57:14.164Z,98648.8
2023-11-14T10:58:12.630Z,98646.97
2023-11-14T10:59:11.538Z,98645.22
2023-11-14T11:00:12.274Z,98642.47
2023-11-14T11:01:10.984Z,98645.62
2023-11-14T11:02:12.618Z,98641.38
2023-11-14T11:03:12.393Z,98644.77
2023-11-14T11:04:17.256Z,98645.23
2023-11-14T11:05:24.475Z,98644.35
2023-11-14T11:06:15.962Z,98645.48
2023-11-14T11:07:16.451Z,98642.27
2023-11-14T11:08:16.718Z,98644.51
2023-11-14T11:09:18.425Z,98651.95
2023-11-14T11:10:17.653Z,98649.24
2023-11-14T11:11:18.010Z,98653.19
2023-11-14T11:12:18.620Z,98649.34
2023-11-14T11:13:22.457Z,98650.91
2023-11-14T11:14:21.520Z,98651.16
2023-11-14T11:15:20.854Z,98649.98
2023-11-14T11:18:35.764Z,98649.33
2023-11-14T11:19:33.552Z,98650.88
2023-11-14T11:20:34.576Z,98652.97
2023-11-14T11:21:34.351Z,98651.8
2023-11-14T11:25:45.536Z,98652.7
2023-11-14T11:27:43.301Z,98649.36
2023-11-14T11:28:46.727Z,98652.62
2023-11-14T11:32:52.845Z,98645.58
2023-11-14T11:33:53.585Z,98644.52
2023-11-14T11:36:57.128Z,98649.21
2023-11-14T11:37:59.709Z,98651.7
2023-11-14T11:42:09.518Z,98651.41
2023-11-14T11:44:14.486Z,98647.84
2023-11-14T11:48:30.082Z,98647.25
2023-11-14T11:49:28.754Z,98652.22
2023-11-14T11:50:30.738Z,98645.18
2023-11-14T11:51:28.206Z,98647.27
2023-11-14T11:52:28.516Z,98647.16
2023-11-14T11:53:42.115Z,98651.98
2023-11-14T11:54:33.019Z,98653.55
2023-11-14T11:55:30.899Z,98652.12
2023-11-14T11:56:40.212Z,98649.82
2023-11-14T11:57:33.454Z,98649
2023-11-14T12:00:38.184Z,98658.05
2023-11-14T12:01:47.815Z,98651.42
2023-11-14T12:02:41.493Z,98654.81
2023-11-14T12:03:41.059Z,98654.06
2023-11-14T12:04:42.116Z,98653.45
2023-11-14T12:05:44.062Z,98653.7
2023-11-14T12:06:45.460Z,98654.52
2023-11-14T12:07:42.835Z,98653.57
2023-11-14T12:08:43.302Z,98658.76
2023-11-14T12:09:43.780Z,98657.36
2023-11-14T12:10:44.109Z,98657.31
2023-11-14T12:11:44.416Z,98652.78
2023-11-14T12:12:47.712Z,98654.62
2023-11-14T12:13:48.670Z,98651.54
2023-11-14T12:14:46.467Z,98654.05
2023-11-14T12:15:46.526Z,98655.64
2023-11-14T12:16:49.624Z,98655.51
2023-11-14T12:17:55.078Z,98656.2
2023-11-14T12:18:48.551Z,98656.41
2023-11-14T12:19:48.534Z,98656.45
2023-11-14T12:20:49.760Z,98656.2
2023-11-14T12:21:48.900Z,98654.58
2023-11-14T12:22:50.575Z,98655.53
2023-11-14T12:23:49.642Z,98656.26